createdAt,value
2022-08-12T00:00:20.994Z,19.83
2022-08-12T00:03:06.593Z,19.81
2022-08-12T00:06:03.930Z,19.78
2022-08-12T00:08:52.552Z,19.74
2022-08-12T00:11:40.826Z,19.72
2022-08-12T00:14:26.820Z,19.68
2022-08-12T00:17:12.588Z,19.69
2022-08-12T00:19:58.084Z,19.68
2022-08-12T00:22:43.932Z,19.68
2022-08-12T00:25:55.850Z,19.64
2022-08-12T00:28:36.512Z,19.64
2022-08-12T00:31:22.454Z,19.62
2022-08-12T00:34:08.160Z,19.61
2022-08-12T00:36:54.049Z,19.61
2022-08-12T00:39:40.555Z,19.59
2022-08-12T00:42:11.951Z,19.57
2022-08-12T00:44:48.311Z,19.56
2022-08-12T00:47:24.529Z,19.54
2022-08-12T00:49:55.624Z,19.54
2022-08-12T00:52:25.119Z,19.54
2022-08-12T00:54:57.430Z,19.56
2022-08-12T00:57:29.038Z,19.56
2022-08-12T00:59:59.537Z,19.57
2022-08-12T01:02:29.703Z,19.52
2022-08-12T01:05:18.390Z,19.53
2022-08-12T01:08:06.048Z,19.49
2022-08-12T01:10:55.036Z,19.48
2022-08-12T01:13:24.097Z,19.49
2022-08-12T01:15:56.159Z,19.47
2022-08-12T01:18:27.402Z,19.49
2022-08-12T01:21:07.949Z,19.49
2022-08-12T01:23:47.477Z,19.46
2022-08-12T01:26:21.133Z,19.44
2022-08-12T01:28:52.637Z,19.43
2022-08-12T01:31:22.223Z,19.41
2022-08-12T01:34:03.685Z,19.41
2022-08-12T01:36:36.460Z,19.41
2022-08-12T01:39:06.117Z,19.37
2022-08-12T01:41:41.163Z,19.37
2022-08-12T01:44:10.827Z,19.32
2022-08-12T01:46:53.442Z,19.30
2022-08-12T01:49:51.823Z,19.31
2022-08-12T01:52:30.703Z,19.31
2022-08-12T01:55:01.205Z,19.28
2022-08-12T01:57:58.702Z,19.28
2022-08-12T02:00:55.404Z,19.27
2022-08-12T02:03:54.598Z,19.28
2022-08-12T02:06:48.342Z,19.27
2022-08-12T02:09:40.248Z,19.24
2022-08-12T02:12:24.273Z,19.22
2022-08-12T02:15:04.725Z,19.21
2022-08-12T02:17:55.819Z,19.20
2022-08-12T02:20:35.121Z,19.21
2022-08-12T02:23:20.690Z,19.14
2022-08-12T02:25:52.018Z,19.14
2022-08-12T02:28:20.165Z,19.12
2022-08-12T02:30:50.876Z,19.10
2022-08-12T02:33:21.079Z,19.08
2022-08-12T02:35:51.726Z,19.07
2022-08-12T02:38:22.996Z,19.08
2022-08-12T02:40:55.246Z,19.09
2022-08-12T02:43:32.161Z,19.08
2022-08-12T02:46:10.393Z,19.06
2022-08-12T02:48:47.716Z,19.04
2022-08-12T02:51:21.642Z,19.03
2022-08-12T02:54:04.307Z,19.02
2022-08-12T02:56:37.931Z,19.00
2022-08-12T02:59:12.456Z,18.97
2022-08-12T03:01:48.531Z,18.96
2022-08-12T03:04:27.481Z,18.94
2022-08-12T03:07:05.633Z,18.92
2022-08-12T03:09:54.313Z,18.90
2022-08-12T03:12:33.950Z,18.87
2022-08-12T03:15:06.654Z,18.87
2022-08-12T03:17:44.043Z,18.82
2022-08-12T03:20:16.237Z,18.83
2022-08-12T03:22:46.040Z,18.85
2022-08-12T03:25:18.189Z,18.86
2022-08-12T03:27:51.892Z,18.84
2022-08-12T03:30:21.172Z,18.84
2022-08-12T03:32:52.838Z,18.81
2022-08-12T03:35:40.622Z,18.76
2022-08-12T03:38:16.282Z,18.73
2022-08-12T03:41:15.262Z,18.74
2022-08-12T03:44:07.545Z,18.73
2022-08-12T03:46:57.846Z,18.68
2022-08-12T03:49:45.989Z,18.64
2022-08-12T03:52:31.847Z,18.63
2022-08-12T03:55:17.721Z,18.61
2022-08-12T03:58:03.560Z,18.60
2022-08-12T04:00:31.987Z,18.57
2022-08-12T04:03:01.786Z,18.55
2022-08-12T04:05:54.534Z,18.51
2022-08-12T04:08:25.475Z,18.49
2022-08-12T04:11:20.477Z,18.46
2022-08-12T04:13:48.767Z,18.46
2022-08-12T04:16:18.060Z,18.44
2022-08-12T04:18:46.674Z,18.41
2022-08-12T04:21:16.188Z,18.43
2022-08-12T04:23:48.398Z,18.45
2022-08-12T04:26:17.405Z,18.43
2022-08-12T04:28:45.861Z,18.43
2022-08-12T04:31:14.512Z,18.42
2022-08-12T04:33:43.991Z,18.37
2022-08-12T04:36:12.268Z,18.35
2022-08-12T04:38:43.246Z,18.34
2022-08-12T04:41:12.450Z,18.34
2022-08-12T04:43:59.727Z,18.31
2022-08-12T04:46:33.521Z,18.32
2022-08-12T04:49:03.774Z,18.30
2022-08-12T04:51:32.529Z,18.31
2022-08-12T04:54:02.781Z,18.29
2022-08-12T04:56:35.520Z,18.30
2022-08-12T04:59:04.474Z,18.28
2022-08-12T05:01:32.869Z,18.28
2022-08-12T05:04:02.889Z,18.26
2022-08-12T05:06:31.111Z,18.23
2022-08-12T05:09:00.704Z,18.25
2022-08-12T05:11:30.362Z,18.25
2022-08-12T05:14:02.299Z,18.25
2022-08-12T05:16:34.329Z,18.27
2022-08-12T05:19:05.428Z,18.29
2022-08-12T05:21:41.943Z,18.31
2022-08-12T05:24:10.471Z,18.33
2022-08-12T05:26:41.105Z,18.35
2022-08-12T05:30:08.051Z,18.35
2022-08-12T05:32:00.709Z,18.33
2022-08-12T05:34:29.097Z,18.35
2022-08-12T05:36:57.466Z,18.37
2022-08-12T05:39:25.705Z,18.38
2022-08-12T05:41:55.957Z,18.39
2022-08-12T05:44:24.156Z,18.36
2022-08-12T05:46:52.367Z,18.40
2022-08-12T05:49:20.511Z,18.41
2022-08-12T05:51:48.677Z,18.41
2022-08-12T05:54:17.104Z,18.45
2022-08-12T05:56:45.783Z,18.47
2022-08-12T05:59:15.604Z,18.50
2022-08-12T06:02:10.974Z,18.54
2022-08-12T06:04:33.477Z,18.59
2022-08-12T06:08:00.278Z,18.64
2022-08-12T06:09:53.830Z,18.66
2022-08-12T06:12:23.429Z,18.69
2022-08-12T06:14:55.881Z,18.72
2022-08-12T06:17:24.201Z,18.75
2022-08-12T06:20:26.046Z,18.78
2022-08-12T06:22:40.882Z,18.81
2022-08-12T06:25:10.229Z,18.84
2022-08-12T06:28:08.018Z,18.88
2022-08-12T06:30:39.838Z,18.93
2022-08-12T06:33:22.270Z,18.97
2022-08-12T06:35:52.504Z,19.01
2022-08-12T06:38:28.107Z,19.04
2022-08-12T06:41:15.215Z,19.08
2022-08-12T06:44:05.776Z,19.12
2022-08-12T06:46:35.145Z,19.15
2022-08-12T06:49:03.558Z,19.22
2022-08-12T06:51:33.001Z,19.22
2022-08-12T06:54:02.362Z,19.23
2022-08-12T06:57:01.766Z,19.26
2022-08-12T06:59:21.479Z,19.27
2022-08-12T07:01:52.070Z,19.28
2022-08-12T07:04:38.389Z,19.28
2022-08-12T07:07:08.357Z,19.28
2022-08-12T07:10:05.153Z,19.30
2022-08-12T07:12:28.164Z,19.32
2022-08-12T07:14:57.343Z,19.47
2022-08-12T07:17:31.682Z,19.83
2022-08-12T07:20:04.165Z,20.27
2022-08-12T07:22:33.212Z,20.70
2022-08-12T07:25:18.797Z,21.06
2022-08-12T07:27:47.158Z,21.38
2022-08-12T07:30:15.692Z,21.56
2022-08-12T07:32:47.578Z,21.66
2022-08-12T07:35:15.691Z,21.71
2022-08-12T07:37:44.326Z,21.71
2022-08-12T07:40:13.330Z,21.67
2022-08-12T07:42:44.257Z,21.63
2022-08-12T07:45:14.156Z,21.52
2022-08-12T07:47:44.936Z,21.41
2022-08-12T07:50:14.371Z,21.30
2022-08-12T07:52:44.890Z,21.21
2022-08-12T07:55:13.925Z,21.11
2022-08-12T07:57:56.057Z,21.08
2022-08-12T08:00:25.148Z,21.06
2022-08-12T08:02:55.257Z,21.06
2022-08-12T08:05:25.071Z,21.06
2022-08-12T08:07:55.747Z,21.06
2022-08-12T08:10:23.977Z,21.05
2022-08-12T08:12:54.071Z,21.07
2022-08-12T08:15:38.704Z,21.10
2022-08-12T08:18:26.620Z,21.15
2022-08-12T08:20:56.800Z,21.20
2022-08-12T08:23:56.156Z,21.22
2022-08-12T08:26:27.250Z,21.29
2022-08-12T08:28:55.674Z,21.31
2022-08-12T08:31:23.895Z,21.38
2022-08-12T08:34:04.235Z,21.41
2022-08-12T08:36:39.296Z,21.47
2022-08-12T08:39:08.213Z,21.50
2022-08-12T08:42:15.460Z,21.56
2022-08-12T08:44:42.384Z,21.63
2022-08-12T08:47:12.252Z,21.75
2022-08-12T08:49:41.962Z,21.82
2022-08-12T08:52:12.225Z,21.87
2022-08-12T08:54:40.723Z,21.95
2022-08-12T08:57:10.192Z,22.03
2022-08-12T08:59:38.359Z,22.10
2022-08-12T09:02:07.757Z,22.20
2022-08-12T09:05:13.155Z,22.26
2022-08-12T09:07:51.466Z,22.30
2022-08-12T09:10:30.562Z,22.35
2022-08-12T09:13:23.468Z,22.43
2022-08-12T09:15:57.685Z,22.47
2022-08-12T09:21:16.799Z,22.49
2022-08-12T09:23:58.906Z,22.53
2022-08-12T09:26:45.983Z,22.60
2022-08-12T09:29:15.459Z,22.64
2022-08-12T09:32:06.529Z,22.69
2022-08-12T09:34:37.795Z,22.73
2022-08-12T09:37:19.312Z,22.77
2022-08-12T09:40:04.999Z,22.78
2022-08-12T09:43:17.053Z,22.75
2022-08-12T09:46:06.524Z,22.82
2022-08-12T09:48:39.293Z,22.88
2022-08-12T09:51:10.968Z,22.93
2022-08-12T09:54:06.017Z,23.07
2022-08-12T09:57:02.065Z,23.13
2022-08-12T10:00:17.898Z,23.19
2022-08-12T10:02:45.709Z,23.22
2022-08-12T10:05:09.372Z,23.30
2022-08-12T10:07:41.754Z,23.33
2022-08-12T10:10:24.266Z,23.34
2022-08-12T10:13:35.205Z,23.35
2022-08-12T10:16:05.848Z,23.40
2022-08-12T10:18:52.396Z,23.44
2022-08-12T10:21:23.352Z,23.46
2022-08-12T10:23:55.201Z,23.47
2022-08-12T10:26:43.108Z,23.47
2022-08-12T10:30:03.098Z,23.41
2022-08-12T10:32:44.341Z,23.47
2022-08-12T10:35:14.668Z,23.52
2022-08-12T10:38:34.605Z,23.56
2022-08-12T10:40:34.483Z,23.64
2022-08-12T10:43:23.085Z,23.76
2022-08-12T10:45:58.314Z,23.83
2022-08-12T10:48:33.924Z,23.88
2022-08-12T10:52:04.893Z,23.94
2022-08-12T10:54:00.655Z,23.98
2022-08-12T10:56:34.439Z,24.04
2022-08-12T10:59:05.434Z,24.03
2022-08-12T11:04:18.107Z,24.05
2022-08-12T11:04:41.268Z,24.09
2022-08-12T11:08:33.860Z,24.11
2022-08-12T11:10:02.853Z,24.31
2022-08-12T11:12:55.347Z,24.43
2022-08-12T11:15:32.674Z,24.63
2022-08-12T11:18:18.662Z,24.75
2022-08-12T11:20:51.984Z,24.88
2022-08-12T11:23:25.344Z,25.03
2022-08-12T11:26:07.979Z,25.09
2022-08-12T11:28:38.366Z,25.09
2022-08-12T11:31:09.806Z,25.08
2022-08-12T11:34:05.995Z,25.11
2022-08-12T11:36:31.344Z,25.10
2022-08-12T11:39:04.509Z,25.18
2022-08-12T11:41:35.897Z,25.24
2022-08-12T11:44:30.729Z,25.26
2022-08-12T11:46:55.183Z,25.32
2022-08-12T11:49:31.993Z,25.39
2022-08-12T11:52:17.647Z,25.54
2022-08-12T11:54:54.295Z,25.72
2022-08-12T11:58:10.064Z,25.80
2022-08-12T12:03:00.728Z,25.87
2022-08-12T12:05:41.905Z,25.87
2022-08-12T12:08:37.561Z,25.86
2022-08-12T12:11:09.947Z,25.89
2022-08-12T12:14:08.918Z,25.89
2022-08-12T12:16:27.047Z,25.93
2022-08-12T12:18:58.081Z,26.01
2022-08-12T12:21:48.531Z,26.07
2022-08-12T12:24:20.875Z,26.23
2022-08-12T12:26:59.616Z,26.20
2022-08-12T12:30:18.483Z,26.20
2022-08-12T12:32:18.967Z,26.27
2022-08-12T12:35:18.336Z,26.27
2022-08-12T12:38:05.162Z,26.24
2022-08-12T12:40:29.853Z,26.12
2022-08-12T12:43:03.022Z,26.18
2022-08-12T12:45:35.534Z,26.25
2022-08-12T12:48:05.847Z,26.30
2022-08-12T12:50:45.111Z,26.39
2022-08-12T12:54:08.095Z,26.39
2022-08-12T12:56:16.356Z,26.43
2022-08-12T12:58:44.758Z,26.36
2022-08-12T13:01:28.066Z,26.30
2022-08-12T13:04:02.564Z,26.22
2022-08-12T13:06:32.374Z,26.24
2022-08-12T13:09:04.434Z,26.37
2022-08-12T13:11:42.261Z,26.45
2022-08-12T13:14:29.166Z,26.46
2022-08-12T13:17:02.824Z,26.35
2022-08-12T13:19:38.628Z,26.28
2022-08-12T13:22:21.405Z,26.21
2022-08-12T13:24:56.530Z,26.19
2022-08-12T13:27:35.737Z,26.30
2022-08-12T13:30:11.383Z,26.35
2022-08-12T13:32:40.930Z,26.44
2022-08-12T13:35:19.293Z,26.52
2022-08-12T13:37:54.699Z,26.47
2022-08-12T13:40:27.192Z,26.49
2022-08-12T13:42:57.767Z,26.50
2022-08-12T13:45:29.049Z,26.52
2022-08-12T13:47:57.826Z,26.52
2022-08-12T13:50:29.949Z,26.53
2022-08-12T13:52:58.556Z,26.57
2022-08-12T13:55:30.976Z,26.56
2022-08-12T13:58:01.717Z,26.48
2022-08-12T14:00:34.381Z,26.60
2022-08-12T14:03:07.403Z,26.49
2022-08-12T14:05:39.252Z,26.42
2022-08-12T14:08:09.177Z,26.40
2022-08-12T14:10:51.044Z,26.38
2022-08-12T14:14:03.979Z,26.37
2022-08-12T14:16:37.486Z,26.30
2022-08-12T14:19:10.441Z,26.29
2022-08-12T14:21:59.509Z,26.34
2022-08-12T14:24:40.677Z,26.41
2022-08-12T14:27:11.398Z,26.40
2022-08-12T14:30:05.107Z,26.38
2022-08-12T14:32:39.948Z,26.43
2022-08-12T14:35:09.903Z,26.31
2022-08-12T14:37:55.232Z,26.24
2022-08-12T14:40:28.643Z,26.16
2022-08-12T14:42:59.852Z,26.14
2022-08-12T14:45:44.355Z,26.11
2022-08-12T14:48:16.182Z,26.05
2022-08-12T14:51:03.265Z,25.92
2022-08-12T14:59:57.475Z,25.94
2022-08-12T15:02:21.198Z,25.84
2022-08-12T15:04:59.744Z,25.82
2022-08-12T15:07:33.319Z,25.84
2022-08-12T15:10:13.446Z,25.72
2022-08-12T15:12:41.898Z,25.76
2022-08-12T15:15:12.449Z,25.79
2022-08-12T15:17:40.659Z,25.74
2022-08-12T15:20:33.188Z,25.70
2022-08-12T15:22:58.230Z,25.63
2022-08-12T15:25:27.185Z,25.62
2022-08-12T15:28:04.758Z,25.59
2022-08-12T15:30:39.382Z,25.52
2022-08-12T15:33:12.681Z,25.45
2022-08-12T15:35:52.039Z,25.49
2022-08-12T15:38:24.577Z,25.38
2022-08-12T15:40:54.225Z,25.28
2022-08-12T15:43:51.521Z,25.25
2022-08-12T15:46:15.857Z,25.19
2022-08-12T15:48:46.842Z,25.14
2022-08-12T15:51:59.292Z,25.05
2022-08-12T15:54:33.145Z,24.95
2022-08-12T15:57:08.243Z,24.89
2022-08-12T16:00:04.578Z,24.76
2022-08-12T16:02:29.903Z,24.69
2022-08-12T16:04:58.806Z,24.60
2022-08-12T16:07:37.095Z,24.55
2022-08-12T16:10:09.273Z,24.42
2022-08-12T16:12:54.426Z,24.39
2022-08-12T16:15:26.689Z,24.32
2022-08-12T16:18:15.230Z,24.29
2022-08-12T16:20:47.469Z,24.21
2022-08-12T16:23:26.990Z,24.16
2022-08-12T16:26:15.193Z,24.05
2022-08-12T16:28:47.611Z,23.94
2022-08-12T16:31:23.238Z,23.86
2022-08-12T16:34:00.012Z,23.87
2022-08-12T16:36:29.706Z,23.82
2022-08-12T16:39:01.602Z,23.78
2022-08-12T16:41:33.497Z,23.71
2022-08-12T16:44:08.463Z,23.62
2022-08-12T16:46:37.579Z,23.63
2022-08-12T16:49:13.225Z,23.63
2022-08-12T16:51:46.850Z,23.56
2022-08-12T16:54:17.205Z,23.55
2022-08-12T16:56:54.989Z,23.54
2022-08-12T16:59:30.741Z,23.49
2022-08-12T17:02:00.391Z,23.44
2022-08-12T17:04:30.481Z,23.39
2022-08-12T17:06:58.617Z,23.38
2022-08-12T17:09:27.403Z,23.39
2022-08-12T17:12:09.362Z,23.34
2022-08-12T17:14:37.936Z,23.36
2022-08-12T17:17:18.534Z,23.30
2022-08-12T17:20:30.506Z,23.30
2022-08-12T17:22:56.525Z,23.23
2022-08-12T17:25:25.855Z,23.26
2022-08-12T17:27:58.251Z,23.23
2022-08-12T17:30:29.079Z,23.18
2022-08-12T17:33:02.762Z,23.22
2022-08-12T17:35:37.627Z,23.19
2022-08-12T17:38:13.482Z,23.13
2022-08-12T17:40:46.662Z,23.17
2022-08-12T17:43:57.703Z,23.17
2022-08-12T17:46:13.225Z,23.14
2022-08-12T17:48:55.182Z,23.15
2022-08-12T17:51:26.349Z,23.15
2022-08-12T17:54:10.407Z,23.13
2022-08-12T17:56:40.275Z,23.11
2022-08-12T17:59:12.530Z,23.08
2022-08-12T18:01:45.475Z,23.05
2022-08-12T18:04:21.789Z,23.05
2022-08-12T18:06:55.786Z,23.03
2022-08-12T18:09:32.045Z,23.04
2022-08-12T18:12:24.690Z,23.06
2022-08-12T18:14:58.851Z,23.04
2022-08-12T18:17:28.330Z,23.03
2022-08-12T18:20:06.281Z,23.01
2022-08-12T18:22:38.625Z,22.97
2022-08-12T18:26:12.380Z,22.88
2022-08-12T18:28:16.477Z,22.85
2022-08-12T18:30:53.055Z,22.81
2022-08-12T18:33:25.827Z,22.77
2022-08-12T18:35:57.070Z,22.70
2022-08-12T18:38:28.278Z,22.66
2022-08-12T18:41:21.797Z,22.63
2022-08-12T18:44:01.239Z,22.58
2022-08-12T18:46:54.035Z,22.53
2022-08-12T18:49:30.742Z,22.48
2022-08-12T18:52:04.318Z,22.44
2022-08-12T18:54:37.623Z,22.37
2022-08-12T18:57:16.567Z,22.33
2022-08-12T18:59:59.600Z,22.27
2022-08-12T19:02:36.035Z,22.26
2022-08-12T19:05:10.907Z,22.23
2022-08-12T19:07:49.212Z,22.21
2022-08-12T19:10:23.060Z,22.17
2022-08-12T19:13:10.685Z,22.14
2022-08-12T19:15:43.115Z,22.13
2022-08-12T19:18:13.309Z,22.12
2022-08-12T19:20:43.927Z,22.10
2022-08-12T19:23:21.252Z,22.08
2022-08-12T19:26:00.448Z,22.08
2022-08-12T19:28:35.393Z,22.05
2022-08-12T19:31:56.890Z,22.02
2022-08-12T19:37:26.695Z,22.00
2022-08-12T19:40:09.397Z,21.96
2022-08-12T19:42:53.591Z,21.93
2022-08-12T19:45:43.982Z,21.90
2022-08-12T19:48:18.063Z,21.88
2022-08-12T19:50:50.588Z,21.85
2022-08-12T19:53:22.625Z,21.84
2022-08-12T19:55:53.421Z,21.81
2022-08-12T19:58:24.954Z,21.81
2022-08-12T20:00:54.729Z,21.77
2022-08-12T20:03:39.282Z,21.75
2022-08-12T20:06:21.627Z,21.74
2022-08-12T20:08:56.381Z,21.73
2022-08-12T20:12:13.335Z,21.69
2022-08-12T20:14:19.553Z,21.66
2022-08-12T20:16:57.705Z,21.61
2022-08-12T20:20:00.999Z,21.58
2022-08-12T20:22:24.876Z,21.56
2022-08-12T20:25:01.040Z,21.53
2022-08-12T20:28:05.428Z,21.51
2022-08-12T20:30:37.283Z,21.48
2022-08-12T20:33:17.297Z,21.49
2022-08-12T20:36:13.706Z,21.48
2022-08-12T20:38:39.793Z,21.47
2022-08-12T20:41:16.671Z,21.44
2022-08-12T20:43:49.423Z,21.44
2022-08-12T20:46:19.994Z,21.43
2022-08-12T20:48:54.785Z,21.40
2022-08-12T20:51:27.532Z,21.40
2022-08-12T20:53:59.445Z,21.38
2022-08-12T20:56:34.712Z,21.37
2022-08-12T20:59:06.696Z,21.35
2022-08-12T21:01:47.711Z,21.32
2022-08-12T21:04:36.714Z,21.30
2022-08-12T21:07:09.090Z,21.29
2022-08-12T21:09:42.062Z,21.28
2022-08-12T21:12:37.440Z,21.26
2022-08-12T21:15:23.285Z,21.26
2022-08-12T21:18:15.499Z,21.24
2022-08-12T21:20:50.915Z,21.23
2022-08-12T21:23:21.604Z,21.18
2022-08-12T21:25:51.660Z,21.16
2022-08-12T21:28:22.212Z,21.11
2022-08-12T21:32:37.613Z,21.08
2022-08-12T21:34:06.577Z,21.07
2022-08-12T21:36:35.578Z,21.04
2022-08-12T21:39:20.142Z,21.01
2022-08-12T21:41:52.091Z,21.02
2022-08-12T21:44:32.544Z,21.01
2022-08-12T21:47:20.930Z,20.99
2022-08-12T21:50:06.472Z,20.95
2022-08-12T21:52:36.653Z,20.94
2022-08-12T21:55:18.233Z,20.93
2022-08-12T21:57:53.083Z,20.90
2022-08-12T22:00:33.161Z,20.86
2022-08-12T22:04:01.699Z,20.86
2022-08-12T22:06:30.723Z,20.82
2022-08-12T22:09:15.788Z,20.79
2022-08-12T22:11:56.108Z,20.79
2022-08-12T22:14:27.992Z,20.75
2022-08-12T22:16:57.805Z,20.72
2022-08-12T22:19:27.032Z,20.70
2022-08-12T22:21:58.541Z,20.69
2022-08-12T22:24:30.353Z,20.66
2022-08-12T22:27:16.029Z,20.64
2022-08-12T22:30:06.099Z,20.63
2022-08-12T22:32:36.599Z,20.62
2022-08-12T22:35:24.252Z,20.62
2022-08-12T22:38:10.865Z,20.60
2022-08-12T22:40:39.817Z,20.56
2022-08-12T22:43:29.234Z,20.55
2022-08-12T22:46:14.737Z,20.55
2022-08-12T22:48:50.181Z,20.53
2022-08-12T22:51:22.154Z,20.53
2022-08-12T22:53:55.099Z,20.52
2022-08-12T22:56:31.021Z,20.52
2022-08-12T22:59:02.516Z,20.50
2022-08-12T23:02:01.551Z,20.46
2022-08-12T23:04:27.584Z,20.42
2022-08-12T23:07:05.548Z,20.42
2022-08-12T23:09:48.797Z,20.40
2022-08-12T23:12:40.966Z,20.38
2022-08-12T23:15:14.652Z,20.33
2022-08-12T23:17:43.572Z,20.31
2022-08-12T23:20:15.158Z,20.29
2022-08-12T23:23:08.834Z,20.27
2022-08-12T23:25:54.243Z,20.27
2022-08-12T23:28:42.442Z,20.27
2022-08-12T23:31:10.938Z,20.23
2022-08-12T23:34:01.575Z,20.25
2022-08-12T23:36:39.044Z,20.24
2022-08-12T23:40:14.052Z,20.22
2022-08-12T23:42:18.147Z,20.22
2022-08-12T23:44:48.378Z,20.20
2022-08-12T23:47:21.108Z,20.19
2022-08-12T23:49:57.220Z,20.21
2022-08-12T23:52:33.889Z,20.18
2022-08-12T23:55:23.034Z,20.17
2022-08-12T23:58:20.906Z,20.17
